»·PEaware :: DCM425 KASE-KNUC

DCM425 :: KASE-KNUC

FLIGHT INFORMATION

Flight Status: Arrived
Operator: DotCom
More flights by this operator :: More flights under this callsign
Pilot: Tyler J. (19619)
Aircraft: Cessna Citation Excel
(C56X)
More flights by this aircraft type
Origin: KASE Aspen-Pitkin Co/Sardy
United States
Destination: KNUC San Clemente I NALF
United States
More flights between these airports :: More routes between these airports
Route: +LINDZ9 JNC V8 HVE J60 PDZ
File this flight plan on PilotEdge
Remarks:
Altitude:
(Current/Filed)
36,000ft
Speed:
(Current/Filed)
410kts
Departed: 14-Jan-20 11:21 AM
Arrived: 14-Jan-20 01:38 PM
Distance/Time
Traveled:
678nm/2:17
Distance/Time
To Go:
Arrived

Flight Plot

Page will automatically refresh every two minutes.


Map Options




Map Legend


Flown Route
Filed Route
Departure Airport
Arrival Airport
Navaid (VOR, NDB)
Fix

Horizontal Profiles

Position Reports

Time Latitude Longitude Heading Altitude Ground
Speed
14-Jan-20 11:07 39.223066 -106.866836 245 7823ft 0kts
14-Jan-20 11:08 39.223066 -106.866836 245 7823ft 0kts
14-Jan-20 11:09 39.223066 -106.866836 245 7823ft 0kts
14-Jan-20 11:10 39.223066 -106.866836 245 7823ft 0kts
14-Jan-20 11:11 39.223066 -106.866836 245 7823ft 0kts
14-Jan-20 11:12 39.223066 -106.866836 245 7823ft 0kts
14-Jan-20 11:13 39.223066 -106.866836 245 7823ft 0kts
14-Jan-20 11:14 39.223066 -106.866836 245 7823ft 0kts
14-Jan-20 11:15 39.223066 -106.866836 245 7823ft 0kts
14-Jan-20 11:16 39.222036 -106.866942 164 7823ft 13kts
14-Jan-20 11:17 39.218538 -106.865371 159 7823ft 15kts
14-Jan-20 11:18 39.214248 -106.863350 159 7823ft 16kts
14-Jan-20 11:19 39.211863 -106.862867 246 7823ft 8kts
14-Jan-20 11:20 39.224847 -106.869746 343 7823ft 152kts
14-Jan-20 11:21 39.280540 -106.897326 306 9695ft 259kts
14-Jan-20 11:22 39.312575 -106.982135 284 12739ft 280kts
14-Jan-20 11:23 39.346952 -107.079286 306 14502ft 313kts
14-Jan-20 11:24 39.400586 -107.159450 272 16010ft 277kts
14-Jan-20 11:25 39.379467 -107.249979 242 17167ft 243kts
14-Jan-20 11:26 39.356765 -107.323388 250 19614ft 219kts
14-Jan-20 11:27 39.334203 -107.409410 250 19666ft 258kts
14-Jan-20 11:28 39.311461 -107.496136 251 20979ft 255kts
14-Jan-20 11:29 39.288594 -107.583090 251 22049ft 256kts
14-Jan-20 11:30 39.265519 -107.670539 251 23036ft 258kts
14-Jan-20 11:31 39.242272 -107.758341 251 23966ft 259kts
14-Jan-20 11:32 39.218793 -107.846736 251 24823ft 261kts
14-Jan-20 11:33 39.194786 -107.936817 251 26178ft 266kts
14-Jan-20 11:34 39.170802 -108.026476 250 27877ft 263kts
14-Jan-20 11:35 39.147170 -108.114510 250 29576ft 257kts
14-Jan-20 11:36 39.124021 -108.200479 250 31278ft 249kts
14-Jan-20 11:37 39.101863 -108.282504 249 32971ft 236kts
14-Jan-20 11:38 39.080967 -108.359648 249 34662ft 219kts
14-Jan-20 11:39 39.061562 -108.431017 250 36191ft 208kts
14-Jan-20 11:40 39.040447 -108.508370 250 36042ft 239kts
14-Jan-20 11:41 39.017378 -108.592655 250 36042ft 260kts
14-Jan-20 11:42 38.992346 -108.683822 250 36043ft 280kts
14-Jan-20 11:44 38.965637 -108.780773 250 36045ft 296kts
14-Jan-20 11:45 38.937472 -108.882636 250 36048ft 308kts
14-Jan-20 11:46 38.908308 -108.987717 250 36049ft 315kts
14-Jan-20 11:47 38.878651 -109.094134 249 36050ft 316kts
14-Jan-20 11:48 38.848835 -109.200701 249 36048ft 319kts
14-Jan-20 11:49 38.818632 -109.308210 249 36046ft 321kts
14-Jan-20 11:50 38.788161 -109.416234 249 36043ft 323kts
14-Jan-20 11:51 38.757407 -109.524819 249 36042ft 325kts
14-Jan-20 11:52 38.726317 -109.634145 249 36040ft 327kts
14-Jan-20 11:53 38.695355 -109.742514 249 36039ft 321kts
14-Jan-20 11:54 38.664690 -109.849439 249 36040ft 319kts
14-Jan-20 11:55 38.634059 -109.955835 249 36042ft 318kts
14-Jan-20 11:56 38.603302 -110.062263 249 36045ft 318kts
14-Jan-20 11:57 38.572523 -110.168365 249 36047ft 319kts
14-Jan-20 11:58 38.541623 -110.274499 249 36046ft 319kts
14-Jan-20 11:59 38.510568 -110.380780 249 36044ft 319kts
14-Jan-20 12:00 38.479480 -110.486811 249 36042ft 319kts
14-Jan-20 12:01 38.448272 -110.592903 249 36040ft 319kts
14-Jan-20 12:02 38.414456 -110.697257 244 36039ft 319kts
14-Jan-20 12:02 38.379683 -110.780986 243 36039ft 320kts
14-Jan-20 12:04 38.329051 -110.896736 242 36041ft 320kts
14-Jan-20 12:05 38.285356 -110.995152 242 36044ft 320kts
14-Jan-20 12:05 38.248661 -111.077357 242 36047ft 320kts
14-Jan-20 12:07 38.197086 -111.192431 242 36053ft 320kts
14-Jan-20 12:07 38.160251 -111.274336 242 36053ft 321kts
14-Jan-20 12:08 38.115847 -111.372789 242 36057ft 321kts
14-Jan-20 12:10 38.063834 -111.487731 242 36056ft 322kts
14-Jan-20 12:10 38.026458 -111.570070 242 36057ft 323kts
14-Jan-20 12:11 37.981494 -111.668846 242 36060ft 324kts
14-Jan-20 12:12 37.936373 -111.767659 242 36062ft 324kts
14-Jan-20 12:13 37.891049 -111.866625 242 36064ft 325kts
14-Jan-20 12:15 37.838087 -111.981884 242 36066ft 325kts
14-Jan-20 12:15 37.800056 -112.064401 242 36068ft 325kts
14-Jan-20 12:16 37.754458 -112.163069 242 36068ft 325kts
14-Jan-20 12:17 37.708756 -112.261376 241 36069ft 325kts
14-Jan-20 12:18 37.655242 -112.354564 236 36071ft 328kts
14-Jan-20 12:19 37.598762 -112.444727 235 36074ft 328kts
14-Jan-20 12:20 37.541552 -112.534611 235 36077ft 329kts
14-Jan-20 12:21 37.484079 -112.624340 235 36090ft 329kts
14-Jan-20 12:22 37.426378 -112.714073 235 36095ft 329kts
14-Jan-20 12:23 37.368538 -112.803732 235 36102ft 330kts
14-Jan-20 12:24 37.310659 -112.893199 234 36110ft 330kts
14-Jan-20 12:25 37.252420 -112.982970 234 36119ft 331kts
14-Jan-20 12:26 37.194386 -113.072183 234 36126ft 331kts
14-Jan-20 12:27 37.135928 -113.161811 234 36131ft 331kts
14-Jan-20 12:28 37.077497 -113.251154 234 36134ft 331kts
14-Jan-20 12:29 37.018966 -113.340408 234 36137ft 332kts
14-Jan-20 12:30 36.960376 -113.429514 234 36141ft 332kts
14-Jan-20 12:31 36.901308 -113.519107 234 36146ft 333kts
14-Jan-20 12:32 36.842354 -113.608287 234 36146ft 333kts
14-Jan-20 12:33 36.783070 -113.697727 234 36146ft 334kts
14-Jan-20 12:34 36.723604 -113.787204 234 36143ft 335kts
14-Jan-20 12:35 36.664147 -113.876427 234 36140ft 336kts
14-Jan-20 12:36 36.604226 -113.966105 233 36135ft 337kts
14-Jan-20 12:37 36.544170 -114.055747 234 36129ft 338kts
14-Jan-20 12:38 36.483716 -114.145740 233 36124ft 339kts
14-Jan-20 12:39 36.423095 -114.235742 233 36120ft 340kts
14-Jan-20 12:40 36.362265 -114.325809 233 36115ft 340kts
14-Jan-20 12:41 36.301306 -114.415829 233 36111ft 340kts
14-Jan-20 12:42 36.240413 -114.505513 233 36108ft 340kts
14-Jan-20 12:43 36.179303 -114.595288 233 36108ft 341kts
14-Jan-20 12:44 36.118040 -114.685051 233 36106ft 341kts
14-Jan-20 12:45 36.056467 -114.775042 233 36103ft 342kts
14-Jan-20 12:46 35.994514 -114.864167 232 36099ft 343kts
14-Jan-20 12:47 35.930496 -114.952305 231 36096ft 346kts
14-Jan-20 12:48 35.865506 -115.040881 231 36110ft 348kts
14-Jan-20 12:49 35.800361 -115.129339 231 36117ft 349kts
14-Jan-20 12:50 35.734778 -115.218130 231 36128ft 350kts
14-Jan-20 12:51 35.668960 -115.306998 231 36130ft 351kts
14-Jan-20 12:52 35.602941 -115.395899 231 36131ft 352kts
14-Jan-20 12:53 35.536869 -115.484638 231 36131ft 353kts
14-Jan-20 12:54 35.470458 -115.573594 231 36131ft 353kts
14-Jan-20 12:55 35.403847 -115.662585 231 36130ft 353kts
14-Jan-20 12:56 35.337310 -115.751251 231 36130ft 354kts
14-Jan-20 12:57 35.270542 -115.839988 230 36119ft 355kts
14-Jan-20 12:58 35.203489 -115.928871 230 36113ft 355kts
14-Jan-20 12:59 35.136460 -116.017495 230 36114ft 355kts
14-Jan-20 13:00 35.069089 -116.106344 230 36113ft 356kts
14-Jan-20 13:01 35.001636 -116.195066 230 36120ft 357kts
14-Jan-20 13:02 34.933971 -116.283833 230 36126ft 358kts
14-Jan-20 13:03 34.865989 -116.372803 230 36122ft 358kts
14-Jan-20 13:04 34.797714 -116.461141 229 36132ft 358kts
14-Jan-20 13:05 34.727964 -116.547798 228 36128ft 359kts
14-Jan-20 13:06 34.659165 -116.632373 228 34309ft 342kts
14-Jan-20 13:07 34.593001 -116.713535 228 32211ft 336kts
14-Jan-20 13:08 34.527029 -116.794321 228 30109ft 337kts
14-Jan-20 13:09 34.460677 -116.875332 228 28012ft 339kts
14-Jan-20 13:10 34.394117 -116.956357 228 25912ft 338kts
14-Jan-20 13:11 34.328064 -117.036599 228 24313ft 333kts
14-Jan-20 13:12 34.263343 -117.114983 228 24205ft 325kts
14-Jan-20 13:13 34.200045 -117.191501 228 24207ft 320kts
14-Jan-20 13:14 34.136475 -117.268284 228 24211ft 342kts
14-Jan-20 13:15 34.063753 -117.355962 228 24210ft 385kts
14-Jan-20 13:16 33.988328 -117.446208 227 24190ft 367kts
14-Jan-20 13:17 33.917866 -117.528444 225 22714ft 342kts
14-Jan-20 13:18 33.847405 -117.603694 225 20415ft 336kts
14-Jan-20 13:19 33.777391 -117.677088 225 18120ft 333kts
14-Jan-20 13:20 33.707622 -117.749857 225 15825ft 332kts
14-Jan-20 13:21 33.637743 -117.822522 225 13525ft 332kts
14-Jan-20 13:22 33.573207 -117.889136 225 13059ft 279kts
14-Jan-20 13:23 33.518274 -117.945449 225 13057ft 254kts
14-Jan-20 13:24 33.465060 -117.999446 225 13058ft 247kts
14-Jan-20 13:25 33.411394 -118.053957 225 13060ft 265kts
14-Jan-20 13:26 33.353724 -118.113290 225 13002ft 280kts
14-Jan-20 13:27 33.295285 -118.174995 229 10913ft 274kts
14-Jan-20 13:28 33.246879 -118.237034 231 8455ft 244kts
14-Jan-20 13:29 33.199164 -118.283371 212 7027ft 217kts
14-Jan-20 13:30 33.149499 -118.323084 218 4968ft 211kts
14-Jan-20 13:31 33.110429 -118.369769 230 3408ft 182kts
14-Jan-20 13:32 33.084819 -118.419848 242 1989ft 159kts
14-Jan-20 13:33 33.065517 -118.464675 251 1760ft 145kts
14-Jan-20 13:34 33.050751 -118.509467 248 1210ft 142kts
14-Jan-20 13:35 33.035910 -118.551006 250 696ft 136kts
14-Jan-20 13:36 33.022945 -118.587926 248 186ft 61kts
14-Jan-20 13:37 33.019009 -118.596042 163 186ft 0kts
14-Jan-20 13:38 33.020104 -118.591709 64 186ft 27kts
14-Jan-20 13:39 33.021164 -118.585667 159 186ft 18kts
14-Jan-20 13:40 33.019675 -118.586371 44 186ft 0kts

Navigation Log

Ident Type
Flight plan parsing failed, navigation log unavailable